Time;durP1;ratioP1;P1;durP2;ratioP2;P2;SDS_P1;SDS_P2;PMS_P1;PMS_P2;Temp;Humidity;BMP_temperature;BMP_pressure;BME280_temperature;BME280_humidity;BME280_pressure;Samples;Min_cycle;Max_cycle;Signal;HPM_P1;HPM_P2
2021/01/16 00:01:30;;;;;;;14.80;10.07;;;2.60;99.90;;;;;;5032615;28;20179;-66
2021/01/16 00:03:56;;;;;;;17.00;10.23;;;2.30;99.90;;;;;;5032302;28;20196;-66
2021/01/16 00:06:28;;;;;;;15.70;10.30;;;2.50;99.90;;;;;;5032461;28;20180;-67
2021/01/16 00:08:55;;;;;;;15.37;10.10;;;2.50;99.90;;;;;;5031051;28;20184;-67
2021/01/16 00:11:21;;;;;;;15.40;9.40;;;2.60;99.90;;;;;;5033442;28;20445;-66
2021/01/16 00:13:46;;;;;;;15.03;9.73;;;2.60;99.90;;;;;;5052335;28;20444;-67
2021/01/16 00:16:12;;;;;;;17.37;10.20;;;2.60;99.90;;;;;;5052320;28;20175;-67
2021/01/16 00:18:38;;;;;;;15.20;10.13;;;2.60;99.90;;;;;;5051894;28;20262;-66
2021/01/16 00:21:04;;;;;;;15.20;10.03;;;2.60;99.90;;;;;;5052155;28;20179;-67
2021/01/16 00:23:30;;;;;;;15.83;10.73;;;2.50;99.90;;;;;;5052035;28;20198;-67
2021/01/16 00:25:56;;;;;;;17.27;9.43;;;2.50;99.90;;;;;;5052101;28;20659;-67
2021/01/16 00:28:25;;;;;;;13.13;9.03;;;2.40;99.90;;;;;;5051978;28;20205;-68
2021/01/16 00:30:51;;;;;;;15.07;9.60;;;2.30;99.90;;;;;;5050978;28;20508;-67
2021/01/16 00:33:22;;;;;;;12.97;8.83;;;2.20;99.90;;;;;;5051792;28;20421;-67
2021/01/16 00:35:49;;;;;;;14.83;8.93;;;2.20;99.90;;;;;;5051791;28;20509;-66
2021/01/16 00:38:15;;;;;;;15.00;9.33;;;2.20;99.90;;;;;;5051926;28;20983;-68
2021/01/16 00:40:41;;;;;;;12.90;8.20;;;2.20;99.90;;;;;;5039550;28;20457;-67
2021/01/16 00:43:12;;;;;;;13.53;9.13;;;2.20;99.90;;;;;;5031842;28;20893;-67
2021/01/16 00:45:38;;;;;;;14.10;9.27;;;2.20;99.90;;;;;;5031502;28;20484;-66
2021/01/16 00:48:15;;;;;;;13.83;9.17;;;2.30;99.90;;;;;;5031665;28;20427;-67
2021/01/16 00:50:42;;;;;;;15.20;9.63;;;2.30;99.90;;;;;;5031205;28;20464;-67
2021/01/16 00:53:08;;;;;;;14.13;9.20;;;2.30;99.90;;;;;;5031318;28;20468;-67
2021/01/16 00:55:37;;;;;;;13.13;8.97;;;2.20;99.90;;;;;;5031386;28;20927;-67
2021/01/16 00:58:13;;;;;;;15.87;9.47;;;2.10;99.90;;;;;;5033373;28;20516;-67
2021/01/16 01:00:40;;;;;;;12.27;8.80;;;2.00;99.90;;;;;;5050206;28;20543;-67
2021/01/16 01:03:06;;;;;;;12.27;8.27;;;2.00;99.90;;;;;;5051662;28;20962;-67
2021/01/16 01:05:32;;;;;;;13.50;8.67;;;2.00;99.90;;;;;;5051430;28;20457;-67
2021/01/16 01:07:57;;;;;;;13.70;8.70;;;2.00;99.90;;;;;;5051287;28;20175;-67
2021/01/16 01:10:33;;;;;;;14.73;8.67;;;2.00;99.90;;;;;;5054198;28;20258;-67
2021/01/16 01:12:58;;;;;;;14.53;9.37;;;2.10;99.90;;;;;;5057992;28;20557;-67
2021/01/16 01:15:24;;;;;;;13.63;9.30;;;2.10;99.90;;;;;;5058058;28;20432;-67
2021/01/16 01:17:54;;;;;;;14.57;9.10;;;2.20;99.90;;;;;;5057878;28;20186;-66
2021/01/16 01:20:21;;;;;;;14.67;9.50;;;2.20;99.90;;;;;;5058007;28;20178;-67
2021/01/16 01:22:47;;;;;;;14.47;9.00;;;2.20;99.90;;;;;;5058144;28;20421;-66
2021/01/16 01:25:13;;;;;;;14.73;9.60;;;2.20;99.90;;;;;;5057784;28;20495;-67
2021/01/16 01:27:39;;;;;;;12.43;8.80;;;2.20;99.90;;;;;;5058023;28;20750;-67
2021/01/16 01:30:06;;;;;;;16.23;10.17;;;2.20;99.90;;;;;;5057944;28;20417;-67
2021/01/16 01:32:33;;;;;;;13.53;9.53;;;2.20;99.90;;;;;;5058071;28;20186;-67
2021/01/16 01:34:58;;;;;;;14.97;9.30;;;2.10;99.90;;;;;;5057947;28;20915;-67
2021/01/16 01:37:24;;;;;;;14.00;8.90;;;2.10;99.90;;;;;;5057934;28;20504;-67
2021/01/16 01:39:50;;;;;;;15.33;9.67;;;2.00;99.90;;;;;;5057502;28;20293;-67
2021/01/16 01:42:17;;;;;;;13.93;9.20;;;2.00;99.90;;;;;;5057819;28;20248;-67
2021/01/16 01:44:43;;;;;;;14.27;9.30;;;1.90;99.90;;;;;;5057750;28;20225;-66
2021/01/16 01:47:14;;;;;;;15.67;9.10;;;2.00;99.90;;;;;;5057858;28;20814;-67
2021/01/16 01:49:41;;;;;;;16.87;9.37;;;2.00;99.90;;;;;;5057898;28;20175;-66
2021/01/16 01:52:09;;;;;;;15.67;9.07;;;2.00;99.90;;;;;;5057921;28;20405;-67
2021/01/16 01:54:35;;;;;;;14.37;8.73;;;2.00;99.90;;;;;;5057817;28;20409;-67
2021/01/16 01:57:03;;;;;;;13.47;9.37;;;2.00;99.90;;;;;;5057762;28;20575;-67
2021/01/16 01:59:35;;;;;;;12.37;9.07;;;1.90;99.90;;;;;;5057717;28;20504;-67
2021/01/16 02:02:01;;;;;;;12.20;8.53;;;1.80;99.90;;;;;;5057577;28;20816;-67
2021/01/16 02:04:31;;;;;;;17.40;9.67;;;1.90;99.90;;;;;;5057620;28;20540;-67
2021/01/16 02:07:00;;;;;;;14.43;9.17;;;1.90;99.90;;;;;;5057712;28;20946;-67
2021/01/16 02:09:26;;;;;;;16.57;9.43;;;1.90;99.90;;;;;;5057588;28;20930;-67
2021/01/16 02:11:53;;;;;;;15.20;9.93;;;1.90;99.90;;;;;;5057834;28;20429;-67
2021/01/16 02:14:23;;;;;;;16.87;10.03;;;1.90;99.90;;;;;;5055126;28;20464;-67
2021/01/16 02:16:51;;;;;;;16.60;10.93;;;1.90;99.90;;;;;;5057446;28;20417;-67
2021/01/16 02:19:35;;;;;;;15.40;10.07;;;1.90;99.90;;;;;;5057485;28;20413;-66
2021/01/16 02:22:01;;;;;;;17.67;10.60;;;1.90;99.90;;;;;;5054150;28;20418;-67
2021/01/16 02:24:30;;;;;;;15.97;10.70;;;1.90;99.90;;;;;;5054407;28;20460;-67
2021/01/16 02:27:25;;;;;;;17.07;10.43;;;2.00;99.90;;;;;;5054164;28;20182;-67
2021/01/16 02:29:58;;;;;;;14.97;9.50;;;2.00;99.90;;;;;;5033756;28;20883;-66
2021/01/16 02:32:26;;;;;;;15.90;10.17;;;2.00;99.90;;;;;;5034196;28;20500;-67
2021/01/16 02:34:53;;;;;;;15.73;9.73;;;1.90;99.90;;;;;;5033801;28;20183;-67
2021/01/16 02:37:42;;;;;;;14.73;10.40;;;1.90;99.90;;;;;;5034070;28;20434;-68
2021/01/16 02:40:29;;;;;;;16.50;10.10;;;1.90;99.90;;;;;;5034705;28;20947;-68
2021/01/16 02:43:31;;;;;;;16.73;10.57;;;1.90;99.90;;;;;;5033529;28;20415;-66
2021/01/16 02:46:21;;;;;;;17.83;10.10;;;1.90;99.90;;;;;;5033234;28;20414;-67
2021/01/16 02:49:11;;;;;;;14.67;9.80;;;1.90;99.90;;;;;;5033718;28;20443;-67
2021/01/16 02:52:05;;;;;;;15.57;10.70;;;1.90;99.90;;;;;;5032845;28;20421;-67
2021/01/16 02:54:35;;;;;;;17.67;10.43;;;1.90;99.90;;;;;;5004915;28;21557;-67
2021/01/16 02:57:03;;;;;;;15.57;10.17;;;1.90;99.90;;;;;;5033782;28;20563;-67
2021/01/16 02:59:34;;;;;;;17.50;11.07;;;1.90;99.90;;;;;;5031169;28;20445;-66
2021/01/16 03:02:01;;;;;;;17.17;10.83;;;1.90;99.90;;;;;;5033457;28;20421;-67
2021/01/16 03:04:26;;;;;;;17.30;10.77;;;2.00;99.90;;;;;;5033469;28;20524;-67
2021/01/16 03:06:54;;;;;;;15.50;10.20;;;2.00;99.90;;;;;;5033692;28;20414;-67
2021/01/16 03:09:21;;;;;;;15.83;10.60;;;2.00;99.90;;;;;;5033744;28;20195;-67
2021/01/16 03:11:47;;;;;;;15.10;10.23;;;1.90;99.90;;;;;;5033536;28;20818;-68
2021/01/16 03:14:14;;;;;;;17.43;10.10;;;1.80;99.90;;;;;;5033349;28;20410;-67
2021/01/16 03:17:07;;;;;;;16.57;10.60;;;1.70;99.90;;;;;;5033597;28;20164;-67
2021/01/16 03:19:35;;;;;;;15.03;9.50;;;1.60;99.90;;;;;;5033184;28;20422;-67
2021/01/16 03:22:15;;;;;;;18.53;11.80;;;1.60;99.90;;;;;;5033133;28;20880;-67
2021/01/16 03:24:40;;;;;;;19.67;11.30;;;1.60;99.90;;;;;;5033317;28;20979;-67
2021/01/16 03:27:06;;;;;;;16.37;10.60;;;1.60;99.90;;;;;;5033337;28;20415;-67
2021/01/16 03:29:32;;;;;;;15.83;10.40;;;1.60;99.90;;;;;;5033203;28;20669;-67
2021/01/16 03:31:57;;;;;;;17.07;11.00;;;1.50;99.90;;;;;;5032958;28;20184;-67
2021/01/16 03:34:23;;;;;;;17.63;10.20;;;1.40;99.90;;;;;;5032749;28;20187;-67
2021/01/16 03:36:48;;;;;;;16.93;10.73;;;1.40;99.90;;;;;;5033219;28;20514;-67
2021/01/16 03:39:14;;;;;;;13.47;9.80;;;1.40;99.90;;;;;;5033043;28;20234;-67
2021/01/16 03:41:39;;;;;;;14.10;10.03;;;1.40;99.90;;;;;;5047592;28;20211;-67
2021/01/16 03:44:05;;;;;;;16.40;10.30;;;1.40;99.90;;;;;;5034989;28;20207;-68
2021/01/16 03:46:31;;;;;;;15.73;10.37;;;1.20;99.90;;;;;;5041438;28;20176;-67
2021/01/16 03:48:57;;;;;;;16.63;10.07;;;1.10;99.90;;;;;;5052623;28;20172;-67
2021/01/16 03:51:23;;;;;;;15.83;9.83;;;1.30;99.90;;;;;;5048365;28;20175;-67
2021/01/16 03:53:49;;;;;;;13.77;8.80;;;1.30;99.90;;;;;;5052769;28;20424;-67
2021/01/16 03:56:14;;;;;;;17.40;9.13;;;1.40;99.90;;;;;;5052671;28;20417;-66
2021/01/16 03:58:40;;;;;;;14.10;9.37;;;1.50;99.90;;;;;;5041615;28;20182;-66
2021/01/16 04:01:05;;;;;;;15.63;9.40;;;1.50;99.90;;;;;;5048484;28;20572;-67
2021/01/16 04:03:31;;;;;;;13.70;9.47;;;1.50;99.90;;;;;;5042580;28;20703;-67
2021/01/16 04:05:56;;;;;;;15.17;8.93;;;1.50;99.90;;;;;;5044133;28;20498;-67
2021/01/16 04:08:22;;;;;;;14.50;9.60;;;1.50;99.90;;;;;;5052493;28;20174;-67
2021/01/16 04:10:48;;;;;;;15.47;8.43;;;1.50;99.90;;;;;;5045265;28;20612;-67
2021/01/16 04:13:13;;;;;;;15.10;9.90;;;1.50;99.90;;;;;;5042716;28;20186;-67
2021/01/16 04:15:39;;;;;;;14.70;9.90;;;1.50;99.90;;;;;;5041115;28;20187;-67
2021/01/16 04:18:05;;;;;;;14.53;9.80;;;1.50;99.90;;;;;;5039894;28;20184;-67
2021/01/16 04:20:30;;;;;;;15.03;9.50;;;1.50;99.90;;;;;;5042768;28;20191;-66
2021/01/16 04:22:56;;;;;;;16.23;9.60;;;1.40;99.90;;;;;;5039261;28;20187;-67
2021/01/16 04:25:21;;;;;;;16.33;9.60;;;1.40;99.90;;;;;;5047884;28;20278;-66
2021/01/16 04:27:47;;;;;;;15.80;9.60;;;1.50;99.90;;;;;;5049385;28;20186;-66
2021/01/16 04:30:13;;;;;;;14.47;9.93;;;1.40;99.90;;;;;;5050633;28;20262;-68
2021/01/16 04:32:38;;;;;;;16.27;9.60;;;1.40;99.90;;;;;;5046737;28;20184;-67
2021/01/16 04:35:05;;;;;;;16.13;9.80;;;1.40;99.90;;;;;;5042858;28;20786;-67
2021/01/16 04:37:31;;;;;;;15.63;9.87;;;1.30;99.90;;;;;;5026646;28;20195;-67
2021/01/16 04:39:57;;;;;;;15.73;10.27;;;1.30;99.90;;;;;;5043199;28;20721;-67
2021/01/16 04:42:24;;;;;;;15.53;9.90;;;1.40;99.90;;;;;;5022202;28;20195;-67
2021/01/16 04:44:50;;;;;;;15.90;10.27;;;1.40;99.90;;;;;;5024111;28;20220;-66
2021/01/16 04:47:25;;;;;;;16.33;10.00;;;1.40;99.90;;;;;;5029085;28;20501;-68
2021/01/16 04:49:51;;;;;;;15.83;9.40;;;1.50;99.90;;;;;;5027552;28;20569;-67
2021/01/16 04:52:25;;;;;;;14.73;9.77;;;1.40;99.90;;;;;;5024767;28;20455;-67
2021/01/16 04:54:52;;;;;;;15.93;9.97;;;1.40;99.90;;;;;;5028519;28;20441;-68
2021/01/16 04:57:18;;;;;;;14.70;9.43;;;1.50;99.90;;;;;;5029905;28;20508;-67
2021/01/16 04:59:44;;;;;;;14.47;9.90;;;1.50;99.90;;;;;;5020872;28;20502;-68
2021/01/16 05:02:10;;;;;;;15.30;9.33;;;1.50;99.90;;;;;;5027777;28;20537;-67
2021/01/16 05:04:39;;;;;;;17.53;10.57;;;1.50;99.90;;;;;;5026156;28;20503;-67
2021/01/16 05:07:08;;;;;;;12.20;9.27;;;1.50;99.90;;;;;;5027066;28;20469;-67
2021/01/16 05:09:36;;;;;;;18.70;10.17;;;1.40;99.90;;;;;;5027867;28;20410;-67
2021/01/16 05:12:32;;;;;;;17.33;10.30;;;1.20;99.90;;;;;;5027546;28;20415;-66
2021/01/16 05:15:09;;;;;;;15.93;9.93;;;1.20;99.90;;;;;;5026162;28;20505;-66
2021/01/16 05:17:44;;;;;;;15.03;10.00;;;1.30;99.90;;;;;;5029649;28;20777;-68
2021/01/16 05:20:11;;;;;;;14.47;9.73;;;1.30;99.90;;;;;;5018260;28;20503;-67
2021/01/16 05:22:37;;;;;;;16.50;10.17;;;1.30;99.90;;;;;;5020408;28;20406;-67
2021/01/16 05:25:07;;;;;;;16.27;10.80;;;1.20;99.90;;;;;;5024411;28;20813;-67
2021/01/16 05:27:37;;;;;;;16.33;10.87;;;1.30;99.90;;;;;;5020126;28;20168;-67
2021/01/16 05:30:06;;;;;;;17.07;10.27;;;1.40;99.90;;;;;;5034590;28;20493;-67
2021/01/16 05:32:32;;;;;;;15.80;10.00;;;1.40;99.90;;;;;;5041830;28;20749;-67
2021/01/16 05:35:22;;;;;;;18.07;10.33;;;1.40;99.90;;;;;;5039201;28;20512;-67
2021/01/16 05:37:49;;;;;;;16.53;10.80;;;1.30;99.90;;;;;;5039555;28;20414;-67
2021/01/16 05:40:16;;;;;;;14.53;10.07;;;1.20;99.90;;;;;;5037597;28;20484;-66
2021/01/16 05:42:42;;;;;;;15.53;9.80;;;1.30;99.90;;;;;;5051036;28;20923;-66
2021/01/16 05:45:12;;;;;;;16.70;10.37;;;1.20;99.90;;;;;;5051134;28;20513;-67
2021/01/16 05:47:43;;;;;;;15.60;10.13;;;1.30;99.90;;;;;;5042157;28;20464;-67
2021/01/16 05:50:10;;;;;;;16.50;10.53;;;1.30;99.90;;;;;;5049377;28;20413;-67
2021/01/16 05:52:40;;;;;;;17.27;10.33;;;1.20;99.90;;;;;;5050437;28;20468;-66
2021/01/16 05:55:07;;;;;;;16.50;10.47;;;1.20;99.90;;;;;;5038809;28;20475;-67
2021/01/16 05:57:34;;;;;;;15.20;10.33;;;1.30;99.90;;;;;;5054150;28;20440;-67
2021/01/16 06:00:01;;;;;;;16.40;10.40;;;1.30;99.90;;;;;;5049484;28;20421;-66
2021/01/16 06:02:32;;;;;;;18.50;11.37;;;1.30;99.90;;;;;;5035423;28;20417;-67
2021/01/16 06:04:58;;;;;;;15.17;10.27;;;1.30;99.90;;;;;;5046368;28;20465;-67
2021/01/16 06:07:25;;;;;;;15.73;10.90;;;1.30;99.90;;;;;;5054772;28;20417;-67
2021/01/16 06:09:53;;;;;;;17.83;11.27;;;1.20;99.90;;;;;;5054795;28;20448;-68
2021/01/16 06:12:21;;;;;;;15.50;10.80;;;1.20;99.90;;;;;;5053497;28;20528;-68
2021/01/16 06:14:48;;;;;;;15.50;10.30;;;1.30;99.90;;;;;;5053290;28;20422;-68
2021/01/16 06:17:16;;;;;;;15.70;10.40;;;1.40;99.90;;;;;;5036310;28;20955;-68
2021/01/16 06:19:47;;;;;;;16.63;10.33;;;1.30;99.90;;;;;;5054658;28;20425;-68
2021/01/16 06:22:14;;;;;;;16.03;10.93;;;1.30;99.90;;;;;;5052107;28;20421;-66
2021/01/16 06:24:45;;;;;;;17.63;10.83;;;1.30;99.90;;;;;;5040085;28;20449;-68
2021/01/16 06:27:23;;;;;;;18.90;10.60;;;1.30;99.90;;;;;;5054429;28;20453;-67
2021/01/16 06:30:00;;;;;;;16.97;11.07;;;1.30;99.90;;;;;;5045021;28;20425;-67
2021/01/16 06:32:27;;;;;;;21.37;11.03;;;1.40;99.90;;;;;;5036182;28;20424;-67
2021/01/16 06:35:06;;;;;;;16.10;11.03;;;1.30;99.90;;;;;;5054613;28;20895;-67
2021/01/16 06:37:32;;;;;;;16.23;10.37;;;1.20;99.90;;;;;;5053939;28;20422;-67
2021/01/16 06:39:58;;;;;;;16.20;10.10;;;1.10;99.90;;;;;;5053327;28;20754;-67
2021/01/16 06:42:28;;;;;;;16.03;11.20;;;1.00;99.90;;;;;;5014058;28;20716;-68
2021/01/16 06:45:08;;;;;;;16.20;11.47;;;1.10;99.90;;;;;;5014063;28;20467;-67
2021/01/16 06:47:41;;;;;;;20.07;11.27;;;1.10;99.90;;;;;;5012936;28;20416;-67
2021/01/16 06:50:08;;;;;;;18.40;11.30;;;1.10;99.90;;;;;;5014188;28;20764;-67
2021/01/16 06:52:40;;;;;;;21.00;11.47;;;0.90;99.90;;;;;;5014053;28;20411;-67
2021/01/16 06:55:07;;;;;;;16.83;11.33;;;0.80;99.90;;;;;;5013976;28;20766;-68
2021/01/16 06:57:33;;;;;;;16.27;10.70;;;0.90;99.90;;;;;;4996626;28;20420;-68
2021/01/16 07:00:04;;;;;;;18.43;11.13;;;1.00;99.90;;;;;;5013729;28;20952;-68
2021/01/16 07:02:31;;;;;;;18.63;11.60;;;1.10;99.90;;;;;;5005759;28;20419;-68
2021/01/16 07:05:09;;;;;;;17.20;11.27;;;1.00;99.90;;;;;;5007749;28;20447;-68
2021/01/16 07:07:37;;;;;;;16.43;10.87;;;0.90;99.90;;;;;;5010103;28;20914;-66
2021/01/16 07:10:07;;;;;;;20.97;11.67;;;1.00;99.90;;;;;;5012392;28;20442;-67
2021/01/16 07:12:48;;;;;;;18.87;11.60;;;1.00;99.90;;;;;;5013833;28;20781;-68
2021/01/16 07:15:16;;;;;;;20.07;12.23;;;0.90;99.90;;;;;;5004277;28;20424;-68
2021/01/16 07:17:41;;;;;;;18.60;11.17;;;0.90;99.90;;;;;;5007353;28;20424;-67
2021/01/16 07:20:09;;;;;;;18.70;12.17;;;1.00;99.90;;;;;;5007537;28;20426;-67
2021/01/16 07:22:38;;;;;;;18.77;11.53;;;0.90;99.90;;;;;;5010358;28;20176;-66
2021/01/16 07:25:06;;;;;;;20.10;12.60;;;0.90;99.90;;;;;;5009844;28;20495;-66
2021/01/16 07:27:36;;;;;;;18.43;11.50;;;0.90;99.90;;;;;;5012836;28;20913;-67
2021/01/16 07:30:05;;;;;;;17.93;11.30;;;0.80;99.90;;;;;;5012751;28;20944;-67
2021/01/16 07:32:42;;;;;;;17.13;12.13;;;0.80;99.90;;;;;;5012698;28;20474;-68
2021/01/16 07:35:10;;;;;;;21.03;11.93;;;0.80;99.90;;;;;;5007017;28;20422;-67
2021/01/16 07:37:35;;;;;;;20.03;12.00;;;0.80;99.90;;;;;;5012808;28;20422;-67
2021/01/16 07:40:03;;;;;;;19.40;12.67;;;0.80;99.90;;;;;;5008929;28;20415;-68
2021/01/16 07:42:31;;;;;;;22.33;12.10;;;0.80;99.90;;;;;;5041656;28;20218;-67
2021/01/16 07:45:08;;;;;;;20.60;12.53;;;0.80;99.90;;;;;;5051102;28;20555;-67
2021/01/16 07:47:40;;;;;;;20.60;12.03;;;0.70;99.90;;;;;;5052062;28;20865;-67
2021/01/16 07:50:19;;;;;;;18.80;11.63;;;0.60;99.90;;;;;;5052181;28;20410;-67
2021/01/16 07:52:53;;;;;;;18.70;11.77;;;0.50;99.90;;;;;;5052147;28;20417;-67
2021/01/16 07:55:19;;;;;;;24.50;12.53;;;0.60;99.90;;;;;;5051949;28;20426;-67
2021/01/16 07:57:49;;;;;;;20.03;12.40;;;0.80;99.90;;;;;;5050144;28;20445;-66
2021/01/16 08:00:19;;;;;;;24.70;13.50;;;1.00;99.90;;;;;;5052275;28;20904;-66
2021/01/16 08:03:00;;;;;;;18.80;12.73;;;1.10;99.90;;;;;;5051748;28;20844;-66
2021/01/16 08:05:31;;;;;;;22.87;13.03;;;1.20;99.90;;;;;;5051585;28;20449;-66
2021/01/16 08:08:25;;;;;;;21.17;13.27;;;1.20;99.90;;;;;;5051868;28;20428;-66
2021/01/16 08:10:55;;;;;;;22.30;12.77;;;1.30;99.90;;;;;;5051608;28;20410;-67
2021/01/16 08:13:23;;;;;;;21.47;13.57;;;1.30;99.90;;;;;;5051837;28;20418;-67
2021/01/16 08:15:49;;;;;;;21.00;14.10;;;1.40;99.90;;;;;;5051383;28;20813;-67
2021/01/16 08:18:22;;;;;;;22.07;13.20;;;1.30;99.90;;;;;;5051908;28;20471;-66
2021/01/16 08:20:49;;;;;;;19.03;13.17;;;1.30;99.90;;;;;;5050526;28;20417;-67
2021/01/16 08:23:25;;;;;;;21.93;13.23;;;1.30;99.90;;;;;;5051570;28;20429;-66
2021/01/16 08:25:52;;;;;;;19.93;12.20;;;1.30;99.90;;;;;;5048304;28;20475;-67
2021/01/16 08:28:25;;;;;;;22.07;13.53;;;1.20;99.90;;;;;;5039015;28;20891;-66
2021/01/16 08:30:52;;;;;;;20.53;12.73;;;1.10;99.90;;;;;;5051582;28;22246;-66
2021/01/16 08:33:17;;;;;;;20.27;12.43;;;1.20;99.90;;;;;;5045835;28;20898;-67
2021/01/16 08:35:46;;;;;;;17.30;11.57;;;1.30;99.90;;;;;;5041787;28;20505;-65
2021/01/16 08:38:17;;;;;;;21.40;12.87;;;1.30;99.90;;;;;;5051156;28;20198;-67
2021/01/16 08:40:53;;;;;;;24.27;13.70;;;1.30;99.90;;;;;;5046498;28;20475;-67
2021/01/16 08:43:37;;;;;;;21.37;13.53;;;1.30;99.90;;;;;;5042203;28;22116;-66
2021/01/16 08:46:24;;;;;;;26.23;16.07;;;1.30;99.90;;;;;;5047303;28;20454;-66
2021/01/16 08:49:03;;;;;;;22.33;13.23;;;1.20;99.90;;;;;;5049988;28;20404;-67
2021/01/16 08:51:32;;;;;;;21.80;12.27;;;1.20;99.90;;;;;;5046117;28;20465;-66
2021/01/16 08:54:16;;;;;;;18.60;12.03;;;1.20;99.90;;;;;;5030758;28;20817;-65
2021/01/16 08:56:48;;;;;;;21.13;12.53;;;1.10;99.90;;;;;;5049599;28;20551;-67
2021/01/16 08:59:29;;;;;;;17.53;12.00;;;1.00;99.90;;;;;;5050675;28;20896;-67
2021/01/16 09:02:06;;;;;;;15.73;10.77;;;1.00;99.90;;;;;;5050481;28;20416;-68
2021/01/16 09:04:34;;;;;;;18.13;11.13;;;1.10;99.90;;;;;;5051034;28;20822;-68
2021/01/16 09:07:29;;;;;;;22.30;11.97;;;1.10;99.90;;;;;;5034336;28;20411;-67
2021/01/16 09:09:59;;;;;;;17.53;11.50;;;1.10;99.90;;;;;;5037626;28;20426;-65
2021/01/16 09:12:39;;;;;;;16.67;10.67;;;1.20;99.90;;;;;;5049840;28;20769;-67
2021/01/16 09:15:24;;;;;;;16.90;10.83;;;1.20;99.90;;;;;;5047841;28;20489;-67
2021/01/16 09:18:02;;;;;;;24.53;12.67;;;1.30;99.90;;;;;;5050288;28;20495;-66
2021/01/16 09:20:29;;;;;;;19.50;11.37;;;1.30;99.90;;;;;;5048579;28;20421;-67
2021/01/16 09:22:54;;;;;;;19.00;11.13;;;1.30;99.90;;;;;;5031073;28;20430;-67
2021/01/16 09:25:26;;;;;;;20.63;11.60;;;1.40;99.90;;;;;;5050658;28;20820;-67
2021/01/16 09:27:53;;;;;;;17.17;11.23;;;1.50;99.90;;;;;;5051000;28;20266;-67
2021/01/16 09:30:30;;;;;;;22.07;11.13;;;1.60;99.90;;;;;;5039315;28;20421;-66
2021/01/16 09:32:56;;;;;;;17.70;10.13;;;1.60;99.90;;;;;;5053375;28;20426;-66
2021/01/16 09:35:40;;;;;;;16.97;10.33;;;1.60;99.90;;;;;;5053097;28;20432;-67
2021/01/16 09:38:16;;;;;;;16.97;11.03;;;1.60;99.90;;;;;;5054351;28;20476;-66
2021/01/16 09:40:42;;;;;;;16.50;10.43;;;1.50;99.90;;;;;;5052986;28;20449;-65
2021/01/16 09:43:22;;;;;;;21.07;12.03;;;1.40;99.90;;;;;;5054202;28;20747;-65
2021/01/16 09:45:56;;;;;;;17.50;10.57;;;1.20;99.90;;;;;;5054336;28;20539;-65
2021/01/16 09:48:30;;;;;;;20.43;12.57;;;1.10;99.90;;;;;;5054236;28;20418;-66
2021/01/16 09:50:57;;;;;;;21.77;11.87;;;1.10;99.90;;;;;;5054556;28;20459;-66
2021/01/16 09:53:25;;;;;;;15.43;10.87;;;1.10;99.90;;;;;;5054509;28;20837;-66
2021/01/16 09:55:54;;;;;;;25.03;9.73;;;0.90;99.90;;;;;;5054219;28;20452;-66
2021/01/16 09:59:00;;;;;;;21.03;11.60;;;0.80;99.90;;;;;;5048204;28;20907;-65
2021/01/16 10:01:28;;;;;;;19.70;12.43;;;0.50;99.90;;;;;;5042505;28;20429;-67
2021/01/16 10:04:02;;;;;;;15.83;8.10;;;0.50;99.90;;;;;;5043082;28;20464;-66
2021/01/16 10:06:34;;;;;;;16.23;10.53;;;0.50;99.90;;;;;;5044772;28;20497;-67
2021/01/16 10:09:00;;;;;;;19.27;13.00;;;0.50;99.90;;;;;;5053252;28;20418;-67
2021/01/16 10:11:42;;;;;;;11.23;5.80;;;0.50;99.90;;;;;;5054049;28;20967;-64
2021/01/16 10:14:19;;;;;;;21.73;13.40;;;0.50;99.90;;;;;;5053953;28;20702;-65
2021/01/16 10:16:46;;;;;;;26.87;13.30;;;0.50;99.90;;;;;;5052584;28;20493;-65
2021/01/16 10:19:13;;;;;;;25.80;15.87;;;0.40;99.90;;;;;;5053645;28;20433;-65
2021/01/16 10:21:58;;;;;;;16.10;8.70;;;0.40;99.90;;;;;;5053986;28;20410;-66
2021/01/16 10:24:25;;;;;;;19.07;10.23;;;0.50;99.90;;;;;;5053998;28;20483;-66
2021/01/16 10:26:51;;;;;;;24.97;14.17;;;0.40;99.90;;;;;;5040380;28;20425;-67
2021/01/16 10:29:37;;;;;;;23.13;13.20;;;0.40;99.90;;;;;;5044960;28;20410;-66
2021/01/16 10:32:20;;;;;;;20.90;13.00;;;0.40;99.90;;;;;;5053760;28;20417;-67
2021/01/16 10:34:46;;;;;;;19.63;10.17;;;0.50;99.90;;;;;;5053995;28;20417;-66
2021/01/16 10:37:12;;;;;;;23.73;14.67;;;0.50;99.90;;;;;;5053284;28;20420;-68
2021/01/16 10:39:39;;;;;;;21.80;12.80;;;0.60;99.90;;;;;;5053819;28;20206;-65
2021/01/16 10:42:13;;;;;;;21.17;12.83;;;0.60;99.90;;;;;;5046692;28;20277;-68
2021/01/16 10:44:40;;;;;;;21.57;11.93;;;0.60;99.90;;;;;;5033741;28;20506;-66
2021/01/16 10:47:23;;;;;;;17.30;10.67;;;0.60;99.90;;;;;;5045437;28;20532;-68
2021/01/16 10:49:49;;;;;;;24.07;14.47;;;0.70;99.90;;;;;;5053163;28;20413;-65
2021/01/16 10:52:28;;;;;;;9.03;5.53;;;0.70;99.90;;;;;;5053502;28;20429;-65
2021/01/16 10:55:02;;;;;;;20.93;13.33;;;0.80;99.90;;;;;;5042171;28;20911;-65
2021/01/16 10:57:42;;;;;;;24.90;13.80;;;0.70;99.90;;;;;;5052238;28;20421;-65
2021/01/16 11:00:12;;;;;;;24.57;13.60;;;0.80;99.90;;;;;;5052071;28;20413;-66
2021/01/16 11:02:41;;;;;;;21.17;14.07;;;0.90;99.90;;;;;;5053323;28;20448;-67
2021/01/16 11:05:15;;;;;;;21.97;12.30;;;1.10;99.90;;;;;;5053180;28;20829;-66
2021/01/16 11:07:42;;;;;;;21.13;14.47;;;1.10;99.90;;;;;;5047532;28;20409;-67
2021/01/16 11:10:16;;;;;;;21.63;13.93;;;1.30;99.90;;;;;;5052960;28;20805;-67
2021/01/16 11:12:42;;;;;;;23.80;14.27;;;1.30;99.90;;;;;;5043552;28;20481;-67
2021/01/16 11:15:30;;;;;;;19.97;11.73;;;1.30;99.90;;;;;;5051861;28;20777;-65
2021/01/16 11:17:58;;;;;;;22.20;13.47;;;1.50;99.90;;;;;;5052393;28;20422;-69
2021/01/16 11:20:31;;;;;;;24.20;13.80;;;1.60;99.90;;;;;;5053242;28;20410;-67
2021/01/16 11:23:18;;;;;;;18.60;11.10;;;1.80;99.90;;;;;;5047315;28;20409;-67
2021/01/16 11:25:48;;;;;;;23.53;14.23;;;2.00;99.90;;;;;;5052488;28;20453;-69
2021/01/16 11:28:20;;;;;;;18.57;12.93;;;2.00;99.90;;;;;;5052610;28;20918;-67
2021/01/16 11:30:48;;;;;;;22.17;12.40;;;1.90;99.90;;;;;;5052490;28;20459;-68
2021/01/16 11:33:15;;;;;;;19.97;12.37;;;1.90;99.90;;;;;;5048374;28;20497;-66
2021/01/16 11:35:43;;;;;;;21.20;13.00;;;2.10;99.90;;;;;;5052604;28;20424;-68
2021/01/16 11:38:46;;;;;;;19.97;12.17;;;2.20;99.90;;;;;;5049665;28;20420;-66
2021/01/16 11:41:13;;;;;;;22.13;12.60;;;2.40;99.90;;;;;;5045910;28;20924;-65
2021/01/16 11:43:40;;;;;;;20.03;12.90;;;2.60;99.90;;;;;;5032511;28;20415;-64
2021/01/16 11:46:07;;;;;;;22.83;14.17;;;2.70;99.90;;;;;;5052158;28;20740;-65
2021/01/16 11:48:33;;;;;;;20.07;13.57;;;2.60;99.90;;;;;;5052232;28;20483;-67
2021/01/16 11:51:13;;;;;;;15.03;10.17;;;2.40;99.90;;;;;;5052365;28;20504;-65
2021/01/16 11:53:46;;;;;;;20.53;12.57;;;2.00;99.90;;;;;;5051680;28;20416;-65
2021/01/16 11:56:14;;;;;;;21.57;13.97;;;1.70;99.90;;;;;;5051170;28;20421;-68
2021/01/16 11:58:41;;;;;;;20.17;14.03;;;2.00;99.90;;;;;;5052288;28;20865;-65
2021/01/16 12:01:07;;;;;;;24.63;13.37;;;2.10;99.90;;;;;;5051893;28;20439;-67
2021/01/16 12:03:33;;;;;;;20.23;12.27;;;2.10;99.90;;;;;;5051929;28;21691;-67
2021/01/16 12:06:15;;;;;;;17.93;11.13;;;1.90;99.90;;;;;;5051816;28;20482;-67
2021/01/16 12:08:44;;;;;;;16.17;10.90;;;1.50;99.90;;;;;;5050684;28;20190;-65
2021/01/16 12:11:11;;;;;;;19.70;11.17;;;1.50;99.90;;;;;;5051831;28;20802;-66
2021/01/16 12:13:39;;;;;;;15.37;10.17;;;1.40;99.90;;;;;;5051728;28;20413;-66
2021/01/16 12:16:07;;;;;;;24.13;13.47;;;1.50;99.90;;;;;;5046363;28;20436;-66
2021/01/16 12:18:37;;;;;;;20.83;13.87;;;1.50;99.90;;;;;;5051876;28;20441;-67
2021/01/16 12:21:03;;;;;;;26.03;14.93;;;1.50;99.90;;;;;;5051893;28;20479;-66
2021/01/16 12:23:41;;;;;;;14.63;8.77;;;1.60;99.90;;;;;;5048863;28;20802;-67
2021/01/16 12:26:10;;;;;;;21.60;14.40;;;1.60;99.90;;;;;;5043375;28;20184;-66
2021/01/16 12:28:40;;;;;;;20.10;12.47;;;1.60;99.90;;;;;;5050743;28;20582;-64
2021/01/16 12:31:06;;;;;;;23.70;13.03;;;1.50;99.90;;;;;;5051723;28;20498;-65
2021/01/16 12:33:33;;;;;;;11.87;7.27;;;1.40;99.90;;;;;;5051318;28;20402;-65
2021/01/16 12:36:08;;;;;;;18.47;11.57;;;1.30;99.90;;;;;;5051196;28;20440;-64
2021/01/16 12:38:34;;;;;;;25.00;14.17;;;1.10;99.90;;;;;;5051345;28;20548;-64
2021/01/16 12:41:00;;;;;;;24.30;13.87;;;1.20;99.90;;;;;;5051221;28;20525;-65
2021/01/16 12:43:26;;;;;;;23.37;13.30;;;1.30;99.90;;;;;;5051105;28;20183;-65
2021/01/16 12:45:52;;;;;;;12.70;7.77;;;1.40;99.90;;;;;;5043057;28;20272;-64
2021/01/16 12:48:18;;;;;;;15.60;9.60;;;1.50;99.90;;;;;;5051038;28;20179;-64
2021/01/16 12:50:45;;;;;;;19.83;11.77;;;1.50;99.90;;;;;;5033141;28;20487;-65
2021/01/16 12:53:13;;;;;;;22.60;13.73;;;1.50;99.90;;;;;;5040006;28;20183;-66
2021/01/16 12:55:39;;;;;;;22.00;13.30;;;1.40;99.90;;;;;;5050994;28;21009;-66
2021/01/16 12:58:05;;;;;;;19.43;13.37;;;1.50;99.90;;;;;;5050996;28;20421;-65